Time;durP1;ratioP1;P1;durP2;ratioP2;P2;SDS_P1;SDS_P2;PMS_P1;PMS_P2;Temp;Humidity;BMP_temperature;BMP_pressure;BME280_temperature;BME280_humidity;BME280_pressure;Samples;Min_cycle;Max_cycle;Signal;HPM_P1;HPM_P2
2021/03/19 00:01:33;;;;;;;63.60;21.68;;;;;;;2.54;92.86;99346.74;1714370;84;21259;-78
2021/03/19 00:04:38;;;;;;;64.17;20.65;;;;;;;2.49;92.51;99354.44;1719270;83;21232;-78
2021/03/19 00:07:58;;;;;;;44.73;17.52;;;;;;;2.48;92.37;99357.64;1703639;84;21188;-78
2021/03/19 00:11:04;;;;;;;57.13;21.05;;;;;;;2.50;92.13;99357.52;1703764;84;21676;-78
2021/03/19 00:14:10;;;;;;;54.40;22.45;;;;;;;2.49;92.16;99354.44;1703666;84;21240;-78
2021/03/19 00:17:15;;;;;;;45.63;19.70;;;;;;;2.50;92.12;99358.36;1671639;85;21749;-78
2021/03/19 00:20:22;;;;;;;49.70;16.93;;;;;;;2.52;92.01;99355.50;1703755;84;21793;-78
2021/03/19 00:23:27;;;;;;;55.50;20.77;;;;;;;2.50;91.83;99357.01;1703683;84;21363;-78
2021/03/19 00:26:31;;;;;;;56.15;20.75;;;;;;;2.48;91.63;99354.09;1703695;84;21148;-78
2021/03/19 00:29:37;;;;;;;56.85;20.45;;;;;;;2.47;91.63;99350.55;1702766;84;21315;-78
2021/03/19 00:32:45;;;;;;;48.08;20.48;;;;;;;2.48;91.46;99349.55;1669138;86;21336;-78
2021/03/19 00:35:51;;;;;;;47.90;18.67;;;;;;;2.46;91.25;99342.61;1703751;84;21826;-78
2021/03/19 00:38:56;;;;;;;66.12;19.87;;;;;;;2.43;91.11;99343.73;1703754;84;21728;-78
2021/03/19 00:42:02;;;;;;;47.27;19.40;;;;;;;2.41;91.03;99345.75;1703810;84;21827;-78
2021/03/19 00:45:06;;;;;;;49.98;18.55;;;;;;;2.37;90.96;99348.89;1703815;84;21263;-78
2021/03/19 00:48:13;;;;;;;48.55;19.42;;;;;;;2.36;90.95;99343.15;1671843;86;21178;-78
2021/03/19 00:51:21;;;;;;;62.27;19.60;;;;;;;2.35;90.93;99344.97;1703089;84;21308;-78
2021/03/19 00:54:26;;;;;;;52.35;18.73;;;;;;;2.37;90.83;99342.14;1702072;84;21334;-78
2021/03/19 00:57:33;;;;;;;46.68;18.70;;;;;;;2.37;90.59;99347.54;1702708;84;21228;-78
2021/03/19 01:00:42;;;;;;;54.48;17.90;;;;;;;2.36;90.44;99344.50;1702702;84;21307;-78
2021/03/19 01:03:48;;;;;;;;;;;;;;;2.35;90.23;99350.36;1674321;86;21296;-78
2021/03/19 01:06:53;;;;;;;43.38;16.32;;;;;;;2.33;90.07;99356.42;1694585;84;20196;-78
2021/03/19 01:09:59;;;;;;;46.40;16.25;;;;;;;2.28;89.90;99351.47;1703115;84;21313;-78
2021/03/19 01:13:03;;;;;;;40.03;14.13;;;;;;;2.25;89.81;99346.35;1703238;84;21746;-78
2021/03/19 01:16:08;;;;;;;44.20;16.23;;;;;;;2.25;89.93;99349.05;1702880;84;21195;-78
2021/03/19 01:19:14;;;;;;;42.75;15.40;;;;;;;2.30;89.96;99357.55;1703272;84;21694;-78
2021/03/19 01:22:18;;;;;;;41.55;16.77;;;;;;;2.34;89.77;99359.47;1703273;84;21218;-78
2021/03/19 01:25:26;;;;;;;40.45;16.55;;;;;;;2.36;89.49;99350.74;1703123;84;21872;-78
2021/03/19 01:28:32;;;;;;;49.20;16.93;;;;;;;2.34;89.29;99354.07;1703280;84;21179;-78
2021/03/19 01:31:38;;;;;;;39.50;14.33;;;;;;;2.33;89.11;99362.33;1702280;84;21329;-78
2021/03/19 01:34:45;;;;;;;37.88;13.18;;;;;;;2.35;89.08;99359.81;1701998;84;21356;-78
2021/03/19 01:37:50;;;;;;;48.70;14.63;;;;;;;2.36;88.87;99364.23;1701890;84;21341;-78
2021/03/19 01:40:56;;;;;;;35.17;14.28;;;;;;;2.36;88.78;99364.73;1700706;84;21253;-78
2021/03/19 01:44:15;;;;;;;40.52;13.75;;;;;;;2.36;88.90;99367.44;1701892;84;21325;-78
2021/03/19 01:48:16;;;;;;;46.30;16.45;;;;;;;2.38;88.86;99367.63;1701904;84;22031;-78
2021/03/19 01:52:17;;;;;;;41.73;15.55;;;;;;;2.37;88.74;99369.13;1701868;84;21209;-78
2021/03/19 01:56:19;;;;;;;43.15;15.72;;;;;;;2.39;88.63;99375.22;1701194;84;21245;-78
2021/03/19 02:00:20;;;;;;;59.70;16.65;;;;;;;2.35;88.40;99369.76;1701824;84;21313;-78
2021/03/19 02:04:20;;;;;;;39.67;14.98;;;;;;;2.28;88.52;99379.80;1703130;84;21194;-78
2021/03/19 02:08:16;;;;;;;52.70;17.00;;;;;;;2.25;88.49;99377.38;1696672;84;21932;-78
2021/03/19 02:12:15;;;;;;;41.75;14.33;;;;;;;2.19;88.48;99377.97;1668910;84;21301;-78
2021/03/19 02:16:14;;;;;;;39.53;14.43;;;;;;;2.19;88.68;99386.57;1642059;87;21341;-78
2021/03/19 02:20:13;;;;;;;43.55;13.13;;;;;;;2.19;88.80;99386.07;1721557;83;21764;-78
2021/03/19 02:24:12;;;;;;;41.48;13.43;;;;;;;2.23;88.74;99385.28;1721587;83;21924;-78
2021/03/19 02:28:12;;;;;;;53.23;18.23;;;;;;;2.22;88.57;99391.19;1721467;83;21294;-78
2021/03/19 02:31:19;;;;;;;44.80;16.27;;;;;;;2.23;88.63;99391.53;1721584;83;21282;-78
2021/03/19 02:34:25;;;;;;;49.13;13.55;;;;;;;2.26;88.56;99390.41;1721621;83;21152;-78
2021/03/19 02:37:35;;;;;;;47.53;15.83;;;;;;;2.25;88.44;99400.31;1721582;83;21208;-78
2021/03/19 02:40:40;;;;;;;51.50;15.35;;;;;;;2.22;88.37;99397.93;1721579;83;21302;-78
2021/03/19 02:43:46;;;;;;;57.05;16.37;;;;;;;2.25;88.53;99401.67;1721594;83;21766;-78
2021/03/19 02:46:52;;;;;;;46.48;14.15;;;;;;;2.27;88.62;99405.59;1720629;83;21207;-78
2021/03/19 02:49:57;;;;;;;50.90;13.95;;;;;;;2.35;88.67;99412.94;1720195;83;21318;-78
2021/03/19 02:53:03;;;;;;;50.30;14.25;;;;;;;2.40;88.42;99422.80;1720401;83;21303;-78
2021/03/19 02:56:11;;;;;;;53.08;16.07;;;;;;;2.41;88.27;99416.42;1719075;83;21905;-78
2021/03/19 02:59:16;;;;;;;59.03;16.97;;;;;;;2.40;88.12;99426.84;1720589;83;21414;-78
2021/03/19 03:02:22;;;;;;;66.12;18.45;;;;;;;2.41;88.14;99424.53;1720504;83;21303;-78
2021/03/19 03:05:28;;;;;;;74.10;16.40;;;;;;;2.42;87.96;99431.12;1720439;83;21350;-78
2021/03/19 03:08:34;;;;;;;73.97;17.10;;;;;;;2.42;87.75;99436.52;1710239;83;21342;-78
2021/03/19 03:11:39;;;;;;;74.95;17.85;;;;;;;2.42;87.68;99435.66;1682771;84;21315;-78
2021/03/19 03:14:45;;;;;;;64.72;17.10;;;;;;;2.41;87.64;99431.27;1702671;84;21168;-78
2021/03/19 03:17:50;;;;;;;77.15;21.02;;;;;;;2.42;87.81;99431.62;1701447;84;21299;-78
2021/03/19 03:21:05;;;;;;;73.83;18.55;;;;;;;2.45;87.94;99435.39;1702401;84;21324;-78
2021/03/19 03:24:09;;;;;;;94.22;19.30;;;;;;;2.46;87.79;99433.88;1670729;86;21919;-78
2021/03/19 03:27:16;;;;;;;91.60;18.75;;;;;;;2.46;87.58;99442.48;1701925;84;21641;-78
2021/03/19 03:30:35;;;;;;;101.38;20.77;;;;;;;2.44;87.60;99444.45;1702651;84;21871;-78
2021/03/19 03:33:41;;;;;;;112.62;21.17;;;;;;;2.42;87.54;99450.52;1703710;84;21815;-78
2021/03/19 03:36:47;;;;;;;78.15;16.87;;;;;;;2.44;87.45;99456.60;1703624;84;21303;-78
2021/03/19 03:39:51;;;;;;;97.20;18.85;;;;;;;2.45;87.41;99449.73;1671744;86;21777;-78
2021/03/19 03:42:57;;;;;;;94.00;17.52;;;;;;;2.44;87.42;99452.55;1703738;84;21691;-78
2021/03/19 03:46:02;;;;;;;100.42;20.62;;;;;;;2.40;87.34;99453.84;1703749;84;21275;-78
2021/03/19 03:49:08;;;;;;;77.22;17.50;;;;;;;2.34;87.42;99449.03;1703812;84;21847;-78
2021/03/19 03:52:14;;;;;;;83.30;18.30;;;;;;;2.29;87.55;99454.36;1703698;84;21303;-78
2021/03/19 03:55:19;;;;;;;108.12;19.65;;;;;;;2.25;87.63;99462.88;1671821;86;21309;-78
2021/03/19 03:58:24;;;;;;;81.32;15.85;;;;;;;2.22;87.77;99459.14;1703710;84;21165;-78
2021/03/19 04:01:31;;;;;;;113.40;22.58;;;;;;;2.22;87.88;99462.69;1703671;84;21225;-78
2021/03/19 04:04:36;;;;;;;110.45;20.48;;;;;;;2.23;87.92;99467.59;1703594;84;21708;-78
2021/03/19 04:07:41;;;;;;;75.10;17.27;;;;;;;2.24;88.02;99468.78;1703553;84;21307;-78
2021/03/19 04:10:47;;;;;;;126.62;21.90;;;;;;;2.25;87.88;99467.78;1721133;82;21306;-77
2021/03/19 04:13:53;;;;;;;135.28;20.57;;;;;;;2.20;87.58;99464.66;1701047;83;21989;-78
2021/03/19 04:16:59;;;;;;;124.25;25.43;;;;;;;2.20;87.76;99469.21;1715898;82;21292;-78
2021/03/19 04:20:04;;;;;;;123.20;21.65;;;;;;;2.20;87.76;99471.41;1718363;82;21196;-78
2021/03/19 04:23:09;;;;;;;86.45;17.73;;;;;;;2.23;87.88;99475.68;1721257;83;21161;-78
2021/03/19 04:26:34;;;;;;;133.50;23.20;;;;;;;2.30;87.94;99478.14;1736646;82;21153;-78
2021/03/19 04:29:39;;;;;;;156.50;23.32;;;;;;;2.32;87.85;99483.42;1736882;82;21263;-78
2021/03/19 04:32:45;;;;;;;144.72;21.97;;;;;;;2.35;87.58;99479.91;1735032;82;21137;-78
2021/03/19 04:35:50;;;;;;;123.80;20.05;;;;;;;2.33;87.40;99485.11;1735656;82;21303;-78
2021/03/19 04:38:55;;;;;;;130.97;21.23;;;;;;;2.30;87.53;99487.09;1734496;82;21925;-78
2021/03/19 04:42:03;;;;;;;153.53;24.15;;;;;;;2.32;87.59;99489.66;1715713;82;21845;-78
2021/03/19 04:45:09;;;;;;;139.65;22.25;;;;;;;2.30;87.67;99491.14;1737096;82;21275;-78
2021/03/19 04:48:14;;;;;;;153.45;25.72;;;;;;;2.32;87.75;99495.56;1736998;82;21346;-78
2021/03/19 04:51:20;;;;;;;118.75;21.65;;;;;;;2.33;87.79;99504.00;1737058;82;21169;-78
2021/03/19 04:54:25;;;;;;;156.32;25.55;;;;;;;2.33;87.76;99504.86;1737068;82;21264;-78
2021/03/19 04:57:31;;;;;;;148.65;24.35;;;;;;;2.33;87.66;99512.95;1730209;82;21693;-78
2021/03/19 05:00:37;;;;;;;169.97;25.60;;;;;;;2.33;87.52;99513.45;1724642;82;21196;-78
2021/03/19 05:03:46;;;;;;;167.15;24.85;;;;;;;2.32;87.27;99515.30;1691872;85;21783;-78
2021/03/19 05:06:51;;;;;;;204.40;26.45;;;;;;;2.31;87.28;99517.66;1692692;85;21192;-78
2021/03/19 05:09:57;;;;;;;162.68;26.52;;;;;;;2.33;87.46;99518.84;1725240;82;21237;-78
2021/03/19 05:13:03;;;;;;;148.40;24.23;;;;;;;2.34;87.38;99532.19;1725791;83;21323;-78
2021/03/19 05:16:02;;;;;;;171.15;27.17;;;;;;;2.36;87.34;99528.02;1720508;82;21918;-78
2021/03/19 05:19:11;;;;;;;157.93;23.65;;;;;;;2.39;87.24;99538.52;1713478;83;21346;-78
2021/03/19 05:22:16;;;;;;;142.65;27.40;;;;;;;2.40;87.11;99535.69;1712495;83;21319;-78
2021/03/19 05:25:24;;;;;;;127.32;23.42;;;;;;;2.32;86.96;99531.50;1709822;81;21185;-78
2021/03/19 05:28:31;;;;;;;144.85;25.25;;;;;;;2.28;87.12;99541.72;1696811;83;21132;-78
2021/03/19 05:31:37;;;;;;;169.82;29.20;;;;;;;2.27;87.21;99550.81;1682301;84;21783;-77
2021/03/19 05:34:42;;;;;;;129.85;26.82;;;;;;;2.27;87.27;99553.51;1684493;84;21193;-78
2021/03/19 05:37:49;;;;;;;164.20;31.05;;;;;;;2.29;87.33;99549.31;1695747;83;21918;-78
2021/03/19 05:40:59;;;;;;;133.45;27.32;;;;;;;2.33;87.37;99557.98;1720347;81;21185;-77
2021/03/19 05:44:16;;;;;;;120.47;27.60;;;;;;;2.38;87.30;99570.05;1726863;82;21287;-77
2021/03/19 05:47:22;;;;;;;111.15;24.20;;;;;;;2.41;87.00;99570.28;1712696;82;21236;-78
2021/03/19 05:50:34;;;;;;;102.72;23.85;;;;;;;2.45;86.68;99573.90;1733818;82;21283;-77
2021/03/19 05:53:50;;;;;;;101.65;23.45;;;;;;;2.46;86.44;99570.20;1727597;82;21239;-76
2021/03/19 05:57:12;;;;;;;124.35;25.35;;;;;;;2.47;86.44;99571.05;1720402;81;21149;-77
2021/03/19 06:00:26;;;;;;;179.20;29.45;;;;;;;2.42;86.39;99575.52;1719359;81;21294;-80
2021/03/19 06:03:33;;;;;;;159.15;31.55;;;;;;;2.45;86.67;99581.15;1720353;82;21264;-77
2021/03/19 06:07:05;;;;;;;141.70;29.87;;;;;;;2.51;86.94;99577.88;1719044;82;21192;-77
2021/03/19 06:10:36;;;;;;;113.90;27.85;;;;;;;2.61;86.96;99576.52;1716830;82;21185;-77
2021/03/19 06:14:00;;;;;;;120.00;26.68;;;;;;;2.60;86.15;99580.22;1668396;83;21430;-82
2021/03/19 06:17:35;;;;;;;109.55;24.45;;;;;;;2.58;86.05;99584.39;1704153;82;21734;-79
2021/03/19 06:20:42;;;;;;;125.85;27.60;;;;;;;2.58;85.89;99581.69;1700257;83;21310;-79
2021/03/19 06:23:53;;;;;;;136.32;33.85;;;;;;;2.64;85.83;99584.34;1730086;81;21861;-78
2021/03/19 06:26:59;;;;;;;139.03;30.02;;;;;;;2.68;85.40;99597.41;1709071;81;22226;-79
2021/03/19 06:30:11;;;;;;;120.50;26.12;;;;;;;2.78;84.98;99600.95;1682484;83;21196;-78
2021/03/19 06:33:26;;;;;;;94.22;23.73;;;;;;;2.87;84.81;99595.66;1726265;81;21184;-79
2021/03/19 06:36:34;;;;;;;90.05;22.85;;;;;;;2.90;84.23;99604.33;1729244;81;21208;-79
2021/03/19 06:40:01;;;;;;;82.27;22.07;;;;;;;2.84;83.77;99603.56;1701204;82;21240;-80
2021/03/19 06:43:28;;;;;;;82.78;21.27;;;;;;;2.81;83.69;99610.59;1677648;83;21211;-80
2021/03/19 06:46:46;;;;;;;127.95;26.10;;;;;;;2.72;83.58;99616.36;1672802;84;21188;-80
2021/03/19 06:50:02;;;;;;;111.03;29.30;;;;;;;2.66;83.79;99620.14;1662612;83;21192;-81
2021/03/19 06:53:30;;;;;;;110.17;26.35;;;;;;;2.62;84.17;99626.81;1700565;83;21196;-80
2021/03/19 06:56:35;;;;;;;134.32;29.72;;;;;;;2.64;84.43;99621.64;1704616;83;21152;-79
2021/03/19 06:59:50;;;;;;;120.45;27.15;;;;;;;2.68;84.68;99623.53;1698282;83;21310;-80
2021/03/19 07:03:06;;;;;;;135.50;27.73;;;;;;;2.77;84.82;99620.83;1729696;81;21342;-80
2021/03/19 07:06:54;;;;;;;163.75;32.95;;;;;;;2.86;84.43;99629.07;1730639;81;21274;-82
2021/03/19 07:10:38;;;;;;;128.57;25.55;;;;;;;2.94;84.27;99623.81;1731612;81;21170;-82
2021/03/19 07:14:04;;;;;;;108.80;23.15;;;;;;;3.07;83.82;99631.12;1715092;82;22086;-80
2021/03/19 07:17:46;;;;;;;129.45;27.93;;;;;;;3.15;82.96;99631.22;1714322;82;21653;-80
2021/03/19 07:21:15;;;;;;;111.55;27.58;;;;;;;3.16;82.51;99633.45;1675440;83;21306;-80
2021/03/19 07:24:54;;;;;;;124.82;28.32;;;;;;;3.16;82.46;99632.95;1707710;83;21355;-79
2021/03/19 07:28:28;;;;;;;100.90;25.68;;;;;;;3.18;82.34;99649.86;1702921;83;21303;-80
2021/03/19 07:32:23;;;;;;;116.77;24.80;;;;;;;3.21;82.54;99633.87;1700914;83;21292;-80
2021/03/19 07:35:55;;;;;;;90.30;21.42;;;;;;;3.29;82.30;99636.67;1700322;83;21152;-78
2021/03/19 07:39:27;;;;;;;110.95;26.23;;;;;;;3.33;82.20;99642.99;1708221;83;21283;-80
2021/03/19 07:42:46;;;;;;;118.77;23.73;;;;;;;3.32;81.52;99644.00;1680856;83;21928;-81
2021/03/19 07:46:20;;;;;;;112.25;24.65;;;;;;;3.26;81.53;99652.70;1683081;83;21295;-81
2021/03/19 07:49:34;;;;;;;105.05;22.87;;;;;;;3.30;81.51;99665.44;1680120;83;21295;-78
2021/03/19 07:52:58;;;;;;;89.77;22.75;;;;;;;3.32;81.09;99656.66;1712699;82;21170;-81
2021/03/19 07:56:25;;;;;;;87.82;19.12;;;;;;;3.32;81.03;99653.45;1683196;83;21157;-81
2021/03/19 08:00:13;;;;;;;98.60;23.75;;;;;;;3.37;81.03;99661.63;1706956;83;21280;-81
2021/03/19 08:03:22;;;;;;;129.18;24.65;;;;;;;3.43;81.08;99662.39;1692050;83;21299;-80
2021/03/19 08:06:31;;;;;;;102.60;20.57;;;;;;;3.58;80.73;99670.41;1709324;83;21911;-80
2021/03/19 08:09:53;;;;;;;71.20;18.05;;;;;;;3.70;80.20;99669.72;1700513;83;21300;-79
2021/03/19 08:13:04;;;;;;;106.45;21.27;;;;;;;3.82;79.75;99659.92;1695106;83;21893;-80
2021/03/19 08:16:40;;;;;;;87.70;21.17;;;;;;;3.98;79.33;99667.89;1727244;81;21284;-80
2021/03/19 08:20:24;;;;;;;67.80;17.95;;;;;;;4.01;78.28;99663.04;1723302;82;21339;-80
2021/03/19 08:24:01;;;;;;;57.60;15.32;;;;;;;3.97;79.14;99665.69;1697874;83;21221;-80
2021/03/19 08:27:31;;;;;;;82.90;17.92;;;;;;;4.12;78.46;99671.45;1726457;82;21275;-80
2021/03/19 08:31:32;;;;;;;78.17;16.25;;;;;;;4.15;77.60;99664.39;1720732;82;21586;-80
2021/03/19 08:34:54;;;;;;;103.95;20.90;;;;;;;4.25;77.12;99666.53;1700166;83;21338;-79
2021/03/19 08:38:35;;;;;;;76.05;17.00;;;;;;;4.47;76.93;99666.63;1695625;83;21322;-80
2021/03/19 08:41:47;;;;;;;86.85;18.02;;;;;;;4.70;76.30;99669.71;1693393;83;21363;-80
2021/03/19 08:44:54;;;;;;;61.65;14.55;;;;;;;4.84;75.74;99668.32;1694756;83;21827;-80
2021/03/19 08:48:02;;;;;;;55.28;14.33;;;;;;;4.94;75.83;99666.88;1694204;83;21232;-80
2021/03/19 08:51:24;;;;;;;50.67;15.10;;;;;;;5.06;74.31;99680.55;1723125;81;21180;-80
2021/03/19 08:54:39;;;;;;;67.47;16.52;;;;;;;5.13;73.66;99673.01;1725723;81;21339;-78
2021/03/19 08:57:45;;;;;;;79.77;17.20;;;;;;;5.09;73.53;99687.03;1726680;81;21370;-78
2021/03/19 09:01:00;;;;;;;70.70;16.17;;;;;;;5.15;73.42;99682.84;1722634;82;21272;-78
2021/03/19 09:04:06;;;;;;;64.37;14.10;;;;;;;5.33;73.01;99685.02;1675513;83;21404;-80
2021/03/19 09:07:45;;;;;;;49.90;12.88;;;;;;;5.58;71.32;99684.68;1672680;84;21373;-79
2021/03/19 09:10:55;;;;;;;55.98;13.43;;;;;;;5.69;70.37;99683.55;1725423;81;21356;-81
2021/03/19 09:14:13;;;;;;;61.42;12.20;;;;;;;5.85;71.25;99684.51;1693343;83;21312;-80
2021/03/19 09:17:52;;;;;;;51.88;13.22;;;;;;;5.98;70.50;99694.13;1687440;83;21194;-78
2021/03/19 09:21:28;;;;;;;45.38;12.45;;;;;;;6.06;69.22;99688.70;1661873;83;21208;-78
2021/03/19 09:24:35;;;;;;;47.58;12.13;;;;;;;6.12;68.83;99687.57;1694797;81;21301;-80
2021/03/19 09:27:47;;;;;;;47.00;10.35;;;;;;;6.21;68.22;99697.97;1687578;83;21347;-78
2021/03/19 09:31:12;;;;;;;52.88;12.50;;;;;;;6.26;68.46;99699.69;1725886;82;21235;-79
2021/03/19 09:34:51;;;;;;;51.58;11.83;;;;;;;6.42;68.02;99706.19;1723962;82;21398;-79
2021/03/19 09:37:58;;;;;;;50.35;11.68;;;;;;;6.54;66.66;99698.94;1696721;83;21365;-79
2021/03/19 09:41:13;;;;;;;60.90;13.10;;;;;;;6.67;66.58;99703.87;1698054;83;22652;-79
2021/03/19 09:44:34;;;;;;;31.90;10.20;;;;;;;6.65;66.38;99695.05;1699715;83;21322;-79
2021/03/19 09:47:49;;;;;;;43.50;10.10;;;;;;;6.66;67.53;99698.10;1700270;83;22277;-79
2021/03/19 09:51:07;;;;;;;51.75;11.28;;;;;;;6.73;66.11;99699.63;1700915;83;21227;-80
2021/03/19 09:54:38;;;;;;;58.70;12.20;;;;;;;6.72;66.09;99709.66;1697224;83;21274;-79
2021/03/19 09:57:43;;;;;;;56.88;12.25;;;;;;;6.64;66.42;99702.87;1672464;83;21314;-80
2021/03/19 10:00:53;;;;;;;42.58;9.88;;;;;;;6.66;65.90;99705.74;1687576;83;21965;-79
2021/03/19 10:04:10;;;;;;;54.23;12.23;;;;;;;6.73;64.79;99707.31;1659514;85;21874;-80
2021/03/19 10:07:32;;;;;;;49.55;10.45;;;;;;;6.63;64.53;99712.01;1670271;84;21183;-80
2021/03/19 10:10:41;;;;;;;46.40;11.90;;;;;;;6.60;64.61;99710.49;1693174;83;21189;-79
2021/03/19 10:13:50;;;;;;;48.20;11.93;;;;;;;6.57;65.54;99705.89;1700597;83;21970;-80
2021/03/19 10:16:55;;;;;;;32.35;9.75;;;;;;;6.58;65.05;99704.86;1697286;83;21164;-80
2021/03/19 10:20:08;;;;;;;43.10;11.20;;;;;;;6.65;65.82;99708.64;1695343;83;21176;-80
2021/03/19 10:23:39;;;;;;;42.83;10.15;;;;;;;6.63;64.23;99703.86;1648627;83;21232;-80
2021/03/19 10:26:58;;;;;;;54.53;12.60;;;;;;;6.59;65.92;99703.87;1735324;81;21808;-80
2021/03/19 10:30:04;;;;;;;35.03;9.60;;;;;;;6.68;65.54;99700.16;1728343;81;21322;-80
2021/03/19 10:33:22;;;;;;;43.15;11.18;;;;;;;6.77;64.25;99711.37;1695426;83;21730;-80
2021/03/19 10:36:32;;;;;;;44.70;11.60;;;;;;;6.59;62.78;99702.00;1725431;82;21183;-80
2021/03/19 10:39:58;;;;;;;44.18;11.05;;;;;;;6.53;64.17;99704.52;1701063;83;21299;-80
2021/03/19 10:43:17;;;;;;;53.83;11.22;;;;;;;6.39;62.71;99719.06;1696608;83;22242;-79
2021/03/19 10:46:47;;;;;;;66.72;13.62;;;;;;;6.39;61.71;99723.14;1696212;83;21346;-78
2021/03/19 10:50:15;;;;;;;;;;;;;;;6.39;62.67;99710.91;1711079;82;21302;-78
2021/03/19 10:53:23;;;;;;;47.75;10.98;;;;;;;6.46;61.75;99718.43;1728022;81;20211;-79
2021/03/19 10:56:25;;;;;;;44.23;11.35;;;;;;;6.52;62.92;99702.81;1697377;83;21847;-79
2021/03/19 10:59:42;;;;;;;45.38;11.85;;;;;;;6.57;62.33;99718.97;1695780;83;22314;-79
2021/03/19 11:02:46;;;;;;;40.73;10.20;;;;;;;6.48;63.05;99718.59;1698153;83;21833;-79
2021/03/19 11:06:16;;;;;;;42.48;10.48;;;;;;;6.53;63.90;99723.53;1700911;83;21164;-80
2021/03/19 11:09:26;;;;;;;45.67;12.55;;;;;;;6.63;61.36;99716.09;1693935;83;21322;-79
2021/03/19 11:12:45;;;;;;;44.33;12.07;;;;;;;6.67;63.61;99717.46;1701140;83;21163;-80
2021/03/19 11:15:58;;;;;;;54.93;11.20;;;;;;;6.66;62.10;99716.61;1691534;82;21267;-82
2021/03/19 11:19:19;;;;;;;47.58;14.33;;;;;;;6.51;60.65;99723.70;1670825;84;21604;-80
2021/03/19 11:22:36;;;;;;;52.30;12.93;;;;;;;6.46;61.19;99715.20;1669844;84;21204;-79
2021/03/19 11:25:44;;;;;;;48.80;12.82;;;;;;;6.51;63.26;99714.20;1668759;84;21248;-79
2021/03/19 11:28:49;;;;;;;52.00;13.22;;;;;;;6.42;62.70;99717.90;1670366;84;21809;-79
2021/03/19 11:32:20;;;;;;;35.28;10.58;;;;;;;6.26;62.84;99720.05;1685123;83;21281;-78
2021/03/19 11:35:26;;;;;;;51.65;12.65;;;;;;;6.29;62.04;99717.50;1699786;83;21151;-79
2021/03/19 11:38:43;;;;;;;54.58;13.08;;;;;;;6.31;61.43;99712.27;1687662;84;21769;-79
2021/03/19 11:41:55;;;;;;;52.20;14.03;;;;;;;6.32;63.17;99730.25;1698698;83;21315;-79
2021/03/19 11:45:08;;;;;;;44.33;11.88;;;;;;;6.34;62.83;99726.85;1684707;83;21234;-79
2021/03/19 11:48:38;;;;;;;43.23;11.83;;;;;;;6.38;60.95;99726.03;1687980;83;21188;-79
2021/03/19 11:51:46;;;;;;;50.03;11.57;;;;;;;6.28;60.81;99732.95;1655929;83;21240;-79
2021/03/19 11:54:58;;;;;;;48.28;12.50;;;;;;;6.25;61.19;99729.70;1695841;83;21254;-78
2021/03/19 11:58:03;;;;;;;73.83;16.48;;;;;;;6.26;61.01;99734.98;1667691;84;21239;-79
2021/03/19 12:01:10;;;;;;;47.83;12.88;;;;;;;6.31;61.44;99728.56;1692141;83;22623;-80
2021/03/19 12:04:18;;;;;;;34.40;11.28;;;;;;;6.37;61.55;99727.90;1696872;83;21239;-78
2021/03/19 12:07:27;;;;;;;60.43;13.62;;;;;;;6.40;61.64;99719.43;1683556;83;21239;-78
2021/03/19 12:10:35;;;;;;;61.05;12.40;;;;;;;6.44;63.25;99723.16;1661734;84;21325;-79
2021/03/19 12:13:44;;;;;;;45.52;13.22;;;;;;;6.37;61.90;99724.33;1670187;83;21157;-78
2021/03/19 12:16:52;;;;;;;51.85;12.78;;;;;;;6.23;62.45;99736.66;1660144;84;21236;-82
2021/03/19 12:20:00;;;;;;;38.88;11.00;;;;;;;6.24;61.53;99722.06;1727969;82;21787;-79
2021/03/19 12:23:23;;;;;;;59.90;12.85;;;;;;;6.33;60.48;99727.88;1701686;83;21898;-80
2021/03/19 12:26:50;;;;;;;60.70;13.18;;;;;;;6.32;61.49;99734.33;1695975;83;21245;-80
2021/03/19 12:29:59;;;;;;;77.87;17.90;;;;;;;6.29;62.19;99736.00;1697129;83;21321;-80
2021/03/19 12:33:04;;;;;;;51.05;12.15;;;;;;;6.26;61.36;99734.98;1700164;83;21170;-80
2021/03/19 12:36:14;;;;;;;57.62;11.78;;;;;;;6.30;60.60;99737.70;1669007;84;21322;-82
2021/03/19 12:39:22;;;;;;;45.17;11.45;;;;;;;6.32;60.42;99734.33;1695593;83;22287;-79
2021/03/19 12:42:29;;;;;;;56.55;13.53;;;;;;;6.27;60.85;99733.97;1697770;83;21309;-79
2021/03/19 12:45:38;;;;;;;47.73;13.88;;;;;;;6.21;61.01;99735.11;1704111;82;21290;-80
2021/03/19 12:48:49;;;;;;;60.30;13.90;;;;;;;6.13;62.28;99733.22;1699720;83;21185;-80
2021/03/19 12:51:55;;;;;;;48.75;12.53;;;;;;;6.05;60.76;99735.88;1698623;83;21283;-80
2021/03/19 12:55:01;;;;;;;43.90;11.88;;;;;;;6.09;60.63;99733.20;1701043;82;21191;-81
2021/03/19 12:58:13;;;;;;;49.95;12.10;;;;;;;6.16;61.49;99741.02;1696956;83;21240;-80
2021/03/19 13:01:22;;;;;;;43.13;11.10;;;;;;;6.18;60.61;99735.45;1636494;83;21231;-81
2021/03/19 13:04:29;;;;;;;51.70;12.28;;;;;;;6.17;60.19;99740.03;1676670;83;21152;-81
2021/03/19 13:07:33;;;;;;;53.28;11.80;;;;;;;6.10;60.30;99745.24;1692915;83;21326;-81
2021/03/19 13:10:40;;;;;;;56.75;12.60;;;;;;;6.11;60.85;99744.73;1694656;83;21355;-81
2021/03/19 13:13:46;;;;;;;40.00;11.03;;;;;;;6.15;61.14;99745.61;1701066;83;21349;-81
2021/03/19 13:16:51;;;;;;;39.25;11.05;;;;;;;6.15;61.27;99745.61;1696806;83;21380;-81
2021/03/19 13:19:57;;;;;;;51.23;11.75;;;;;;;6.18;60.23;99753.95;1686207;83;21244;-79
2021/03/19 13:23:06;;;;;;;34.27;10.68;;;;;;;6.18;61.34;99753.10;1659212;85;21635;-79
2021/03/19 13:26:11;;;;;;;54.73;11.90;;;;;;;6.17;60.26;99756.84;1693200;83;21326;-79
2021/03/19 13:29:16;;;;;;;41.60;9.08;;;;;;;6.19;60.41;99760.23;1683260;83;21177;-79
2021/03/19 13:32:22;;;;;;;41.95;12.07;;;;;;;6.25;60.38;99753.62;1649592;85;21193;-79
2021/03/19 13:35:32;;;;;;;41.55;12.40;;;;;;;6.32;60.24;99758.77;1666914;84;21289;-79
2021/03/19 13:38:40;;;;;;;36.13;9.40;;;;;;;6.31;58.65;99753.00;1698247;83;21279;-79
2021/03/19 13:41:46;;;;;;;42.88;10.10;;;;;;;6.23;59.61;99753.47;1692147;83;21165;-79
2021/03/19 13:44:51;;;;;;;32.88;9.25;;;;;;;6.18;58.55;99760.74;1693559;83;21172;-80
2021/03/19 13:47:57;;;;;;;40.55;10.45;;;;;;;6.13;57.79;99765.80;1693988;83;21156;-79
2021/03/19 13:51:04;;;;;;;30.55;9.18;;;;;;;6.12;58.91;99765.47;1694298;83;21274;-79
2021/03/19 13:54:10;;;;;;;29.50;8.75;;;;;;;6.15;58.08;99767.84;1674645;84;21355;-80
2021/03/19 13:57:17;;;;;;;26.77;7.50;;;;;;;6.18;58.34;99772.11;1689413;83;21193;-79
2021/03/19 14:00:30;;;;;;;41.35;8.80;;;;;;;6.19;56.94;99768.38;1694003;83;21882;-79
2021/03/19 14:03:36;;;;;;;57.78;9.58;;;;;;;6.20;57.15;99768.72;1689330;83;21843;-79
2021/03/19 14:06:42;;;;;;;40.40;8.68;;;;;;;6.17;57.68;99767.19;1687612;83;21221;-80
2021/03/19 14:09:46;;;;;;;41.02;10.60;;;;;;;6.10;56.84;99764.76;1687778;83;21294;-79
2021/03/19 14:12:52;;;;;;;37.63;9.85;;;;;;;6.01;56.54;99765.72;1698252;84;21671;-79
2021/03/19 14:16:01;;;;;;;33.20;9.98;;;;;;;5.92;57.35;99766.67;1669554;84;21235;-80
2021/03/19 14:19:07;;;;;;;55.70;10.93;;;;;;;5.84;57.82;99764.75;1692766;83;21283;-79
2021/03/19 14:22:16;;;;;;;31.80;8.55;;;;;;;5.76;57.64;99766.89;1736109;82;21630;-79
2021/03/19 14:25:21;;;;;;;31.75;8.78;;;;;;;5.72;58.54;99770.92;1727050;81;21157;-79
2021/03/19 14:28:30;;;;;;;20.50;7.83;;;;;;;5.68;58.96;99773.60;1716790;81;22212;-79
2021/03/19 14:31:37;;;;;;;43.08;9.68;;;;;;;5.69;58.87;99783.95;1737610;81;21275;-79
2021/03/19 14:34:43;;;;;;;41.68;9.38;;;;;;;5.72;59.74;99780.42;1704165;84;21905;-79
2021/03/19 14:37:48;;;;;;;35.25;8.95;;;;;;;5.73;59.68;99779.91;1718767;82;21377;-79
2021/03/19 14:40:54;;;;;;;41.77;8.63;;;;;;;5.72;59.00;99779.58;1732055;82;21296;-79
2021/03/19 14:44:00;;;;;;;31.52;7.45;;;;;;;5.68;59.72;99776.31;1701600;83;21294;-79
2021/03/19 14:47:07;;;;;;;36.85;10.30;;;;;;;5.61;60.69;99774.75;1715370;83;21237;-79
2021/03/19 14:50:13;;;;;;;36.90;8.95;;;;;;;5.56;60.98;99777.59;1726710;82;21312;-79
2021/03/19 14:53:21;;;;;;;37.33;8.20;;;;;;;5.54;61.29;99785.88;1735405;82;21295;-79
2021/03/19 14:56:26;;;;;;;48.20;8.63;;;;;;;5.52;60.42;99791.12;1734943;82;21318;-79
2021/03/19 14:59:32;;;;;;;45.33;10.05;;;;;;;5.45;60.12;99785.45;1735934;82;21185;-79
2021/03/19 15:02:46;;;;;;;37.45;8.30;;;;;;;5.37;59.99;99788.11;1735636;82;21177;-79